sensor_id;sensor_type;location;lat;lon;timestamp;P1;durP1;ratioP1;P2;durP2;ratioP2
64052;SDS011;50299;49.524;8.536;2023-03-08T00:01:15;11.02;;;8.27;;
64052;SDS011;50299;49.524;8.536;2023-03-08T00:03:43;10.18;;;7.93;;
64052;SDS011;50299;49.524;8.536;2023-03-08T00:06:11;9.85;;;7.63;;
64052;SDS011;50299;49.524;8.536;2023-03-08T00:08:39;10.07;;;7.00;;
64052;SDS011;50299;49.524;8.536;2023-03-08T00:11:06;10.98;;;7.32;;
64052;SDS011;50299;49.524;8.536;2023-03-08T00:13:33;10.23;;;7.22;;
64052;SDS011;50299;49.524;8.536;2023-03-08T00:16:01;11.48;;;8.20;;
64052;SDS011;50299;49.524;8.536;2023-03-08T00:18:31;10.63;;;8.15;;
64052;SDS011;50299;49.524;8.536;2023-03-08T00:23:37;9.68;;;8.00;;
64052;SDS011;50299;49.524;8.536;2023-03-08T00:26:03;10.70;;;8.02;;
64052;SDS011;50299;49.524;8.536;2023-03-08T00:28:30;13.35;;;9.32;;
64052;SDS011;50299;49.524;8.536;2023-03-08T00:30:58;12.07;;;8.60;;
64052;SDS011;50299;49.524;8.536;2023-03-08T00:33:26;11.32;;;8.05;;
64052;SDS011;50299;49.524;8.536;2023-03-08T00:35:55;10.32;;;8.38;;
64052;SDS011;50299;49.524;8.536;2023-03-08T00:38:29;9.88;;;7.72;;
64052;SDS011;50299;49.524;8.536;2023-03-08T00:40:57;10.88;;;7.97;;
64052;SDS011;50299;49.524;8.536;2023-03-08T00:43:24;12.63;;;8.50;;
64052;SDS011;50299;49.524;8.536;2023-03-08T00:45:51;10.88;;;7.78;;
64052;SDS011;50299;49.524;8.536;2023-03-08T00:48:18;11.15;;;7.65;;
64052;SDS011;50299;49.524;8.536;2023-03-08T00:50:45;11.63;;;8.45;;
64052;SDS011;50299;49.524;8.536;2023-03-08T00:53:12;11.70;;;7.40;;
64052;SDS011;50299;49.524;8.536;2023-03-08T00:55:46;14.45;;;8.35;;
64052;SDS011;50299;49.524;8.536;2023-03-08T00:58:14;10.63;;;7.55;;
64052;SDS011;50299;49.524;8.536;2023-03-08T01:00:40;11.30;;;6.90;;
64052;SDS011;50299;49.524;8.536;2023-03-08T01:03:07;10.82;;;7.75;;
64052;SDS011;50299;49.524;8.536;2023-03-08T01:05:37;11.07;;;7.72;;
64052;SDS011;50299;49.524;8.536;2023-03-08T01:08:05;14.80;;;8.50;;
64052;SDS011;50299;49.524;8.536;2023-03-08T01:10:31;12.18;;;8.60;;
64052;SDS011;50299;49.524;8.536;2023-03-08T01:12:58;11.88;;;8.45;;
64052;SDS011;50299;49.524;8.536;2023-03-08T01:15:24;13.48;;;7.40;;
64052;SDS011;50299;49.524;8.536;2023-03-08T01:17:51;11.25;;;8.38;;
64052;SDS011;50299;49.524;8.536;2023-03-08T01:20:17;12.38;;;8.60;;
64052;SDS011;50299;49.524;8.536;2023-03-08T01:22:44;13.30;;;7.78;;
64052;SDS011;50299;49.524;8.536;2023-03-08T01:25:10;12.73;;;8.25;;
64052;SDS011;50299;49.524;8.536;2023-03-08T01:27:37;12.75;;;9.02;;
64052;SDS011;50299;49.524;8.536;2023-03-08T01:30:04;12.90;;;8.85;;
64052;SDS011;50299;49.524;8.536;2023-03-08T01:32:31;12.18;;;8.82;;
64052;SDS011;50299;49.524;8.536;2023-03-08T01:34:58;12.88;;;9.18;;
64052;SDS011;50299;49.524;8.536;2023-03-08T01:37:32;13.23;;;8.50;;
64052;SDS011;50299;49.524;8.536;2023-03-08T01:39:59;14.00;;;9.80;;
64052;SDS011;50299;49.524;8.536;2023-03-08T01:42:26;12.82;;;8.52;;
64052;SDS011;50299;49.524;8.536;2023-03-08T01:44:54;13.95;;;9.52;;
64052;SDS011;50299;49.524;8.536;2023-03-08T01:47:26;12.00;;;9.23;;
64052;SDS011;50299;49.524;8.536;2023-03-08T01:50:01;13.13;;;8.88;;
64052;SDS011;50299;49.524;8.536;2023-03-08T01:52:32;10.90;;;8.75;;
64052;SDS011;50299;49.524;8.536;2023-03-08T01:55:05;12.98;;;9.85;;
64052;SDS011;50299;49.524;8.536;2023-03-08T01:57:39;12.35;;;8.48;;
64052;SDS011;50299;49.524;8.536;2023-03-08T02:00:13;11.40;;;8.55;;
64052;SDS011;50299;49.524;8.536;2023-03-08T02:02:47;12.43;;;10.25;;
64052;SDS011;50299;49.524;8.536;2023-03-08T02:05:17;14.07;;;8.95;;
64052;SDS011;50299;49.524;8.536;2023-03-08T02:10:35;11.80;;;8.95;;
64052;SDS011;50299;49.524;8.536;2023-03-08T02:13:03;12.25;;;8.55;;
64052;SDS011;50299;49.524;8.536;2023-03-08T02:15:31;14.23;;;8.77;;
64052;SDS011;50299;49.524;8.536;2023-03-08T02:17:57;12.15;;;8.57;;
64052;SDS011;50299;49.524;8.536;2023-03-08T02:23:05;12.25;;;9.05;;
64052;SDS011;50299;49.524;8.536;2023-03-08T02:25:40;11.35;;;7.95;;
64052;SDS011;50299;49.524;8.536;2023-03-08T02:28:15;14.38;;;8.25;;
64052;SDS011;50299;49.524;8.536;2023-03-08T02:30:41;12.20;;;7.80;;
64052;SDS011;50299;49.524;8.536;2023-03-08T02:33:08;11.25;;;8.25;;
64052;SDS011;50299;49.524;8.536;2023-03-08T02:35:34;10.70;;;8.05;;
64052;SDS011;50299;49.524;8.536;2023-03-08T02:38:01;11.95;;;8.40;;
64052;SDS011;50299;49.524;8.536;2023-03-08T02:40:27;11.75;;;8.02;;
64052;SDS011;50299;49.524;8.536;2023-03-08T02:42:54;13.30;;;8.60;;
64052;SDS011;50299;49.524;8.536;2023-03-08T02:45:21;11.35;;;8.45;;
64052;SDS011;50299;49.524;8.536;2023-03-08T02:47:48;12.05;;;8.80;;
64052;SDS011;50299;49.524;8.536;2023-03-08T02:50:15;10.70;;;7.97;;
64052;SDS011;50299;49.524;8.536;2023-03-08T02:52:41;12.55;;;8.60;;
64052;SDS011;50299;49.524;8.536;2023-03-08T02:55:08;12.15;;;8.07;;
64052;SDS011;50299;49.524;8.536;2023-03-08T02:57:34;13.93;;;8.85;;
64052;SDS011;50299;49.524;8.536;2023-03-08T03:02:59;12.95;;;9.82;;
64052;SDS011;50299;49.524;8.536;2023-03-08T03:05:25;13.73;;;8.00;;
64052;SDS011;50299;49.524;8.536;2023-03-08T03:07:52;10.50;;;7.80;;
64052;SDS011;50299;49.524;8.536;2023-03-08T03:10:20;12.63;;;7.93;;
64052;SDS011;50299;49.524;8.536;2023-03-08T03:12:46;12.02;;;7.72;;
64052;SDS011;50299;49.524;8.536;2023-03-08T03:15:13;12.38;;;8.43;;
64052;SDS011;50299;49.524;8.536;2023-03-08T03:17:39;12.70;;;8.95;;
64052;SDS011;50299;49.524;8.536;2023-03-08T03:20:07;12.45;;;8.68;;
64052;SDS011;50299;49.524;8.536;2023-03-08T03:22:35;12.55;;;8.13;;
64052;SDS011;50299;49.524;8.536;2023-03-08T03:25:02;12.15;;;8.23;;
64052;SDS011;50299;49.524;8.536;2023-03-08T03:27:30;14.40;;;9.40;;
64052;SDS011;50299;49.524;8.536;2023-03-08T03:29:56;11.32;;;7.78;;
64052;SDS011;50299;49.524;8.536;2023-03-08T03:32:25;10.80;;;7.68;;
64052;SDS011;50299;49.524;8.536;2023-03-08T03:34:53;12.68;;;8.25;;
64052;SDS011;50299;49.524;8.536;2023-03-08T03:37:20;11.40;;;7.75;;
64052;SDS011;50299;49.524;8.536;2023-03-08T03:39:47;11.63;;;7.90;;
64052;SDS011;50299;49.524;8.536;2023-03-08T03:42:13;12.25;;;8.50;;
64052;SDS011;50299;49.524;8.536;2023-03-08T03:44:40;13.13;;;8.77;;
64052;SDS011;50299;49.524;8.536;2023-03-08T03:47:06;10.90;;;7.50;;
64052;SDS011;50299;49.524;8.536;2023-03-08T03:49:33;12.30;;;8.30;;
64052;SDS011;50299;49.524;8.536;2023-03-08T03:52:00;13.35;;;8.48;;
64052;SDS011;50299;49.524;8.536;2023-03-08T03:54:26;13.30;;;8.95;;
64052;SDS011;50299;49.524;8.536;2023-03-08T03:56:53;13.18;;;8.38;;
64052;SDS011;50299;49.524;8.536;2023-03-08T03:59:23;14.45;;;8.80;;
64052;SDS011;50299;49.524;8.536;2023-03-08T04:01:53;10.77;;;7.78;;
64052;SDS011;50299;49.524;8.536;2023-03-08T04:04:20;12.43;;;8.20;;
64052;SDS011;50299;49.524;8.536;2023-03-08T04:06:52;14.00;;;8.45;;
64052;SDS011;50299;49.524;8.536;2023-03-08T04:09:19;14.75;;;8.73;;
64052;SDS011;50299;49.524;8.536;2023-03-08T04:11:45;11.85;;;7.45;;
64052;SDS011;50299;49.524;8.536;2023-03-08T04:14:15;11.85;;;8.55;;
64052;SDS011;50299;49.524;8.536;2023-03-08T04:16:42;16.40;;;8.63;;
64052;SDS011;50299;49.524;8.536;2023-03-08T04:19:10;15.48;;;10.35;;
64052;SDS011;50299;49.524;8.536;2023-03-08T04:21:37;14.23;;;8.77;;
64052;SDS011;50299;49.524;8.536;2023-03-08T04:24:04;12.07;;;8.10;;
64052;SDS011;50299;49.524;8.536;2023-03-08T04:26:31;14.77;;;8.48;;
64052;SDS011;50299;49.524;8.536;2023-03-08T04:29:00;13.80;;;8.98;;
64052;SDS011;50299;49.524;8.536;2023-03-08T04:31:31;13.75;;;8.77;;
64052;SDS011;50299;49.524;8.536;2023-03-08T04:34:00;12.52;;;8.63;;
64052;SDS011;50299;49.524;8.536;2023-03-08T04:36:27;15.57;;;9.15;;
64052;SDS011;50299;49.524;8.536;2023-03-08T04:38:54;14.38;;;8.98;;
64052;SDS011;50299;49.524;8.536;2023-03-08T04:41:20;14.77;;;8.65;;
64052;SDS011;50299;49.524;8.536;2023-03-08T04:43:48;14.18;;;9.43;;
64052;SDS011;50299;49.524;8.536;2023-03-08T04:46:19;14.93;;;10.07;;
64052;SDS011;50299;49.524;8.536;2023-03-08T04:48:49;15.40;;;9.98;;
64052;SDS011;50299;49.524;8.536;2023-03-08T04:51:18;15.77;;;9.35;;
64052;SDS011;50299;49.524;8.536;2023-03-08T04:53:45;41.13;;;10.85;;
64052;SDS011;50299;49.524;8.536;2023-03-08T04:56:12;267.45;;;23.60;;
64052;SDS011;50299;49.524;8.536;2023-03-08T04:58:40;37.28;;;11.27;;
64052;SDS011;50299;49.524;8.536;2023-03-08T05:01:11;13.55;;;9.70;;
64052;SDS011;50299;49.524;8.536;2023-03-08T05:03:43;14.77;;;10.43;;
64052;SDS011;50299;49.524;8.536;2023-03-08T05:06:10;15.73;;;9.73;;
64052;SDS011;50299;49.524;8.536;2023-03-08T05:08:39;19.00;;;10.60;;
64052;SDS011;50299;49.524;8.536;2023-03-08T05:11:15;20.05;;;11.73;;
64052;SDS011;50299;49.524;8.536;2023-03-08T05:13:44;15.60;;;10.48;;
64052;SDS011;50299;49.524;8.536;2023-03-08T05:16:10;14.20;;;9.40;;
64052;SDS011;50299;49.524;8.536;2023-03-08T05:18:40;15.40;;;9.90;;
64052;SDS011;50299;49.524;8.536;2023-03-08T05:21:09;15.38;;;10.80;;
64052;SDS011;50299;49.524;8.536;2023-03-08T05:23:40;18.05;;;12.75;;
64052;SDS011;50299;49.524;8.536;2023-03-08T05:26:10;18.95;;;11.20;;
64052;SDS011;50299;49.524;8.536;2023-03-08T05:28:38;14.73;;;10.32;;
64052;SDS011;50299;49.524;8.536;2023-03-08T05:31:09;19.13;;;11.40;;
64052;SDS011;50299;49.524;8.536;2023-03-08T05:33:38;18.95;;;11.95;;
64052;SDS011;50299;49.524;8.536;2023-03-08T05:36:05;16.13;;;11.02;;
64052;SDS011;50299;49.524;8.536;2023-03-08T05:38:33;17.90;;;12.55;;
64052;SDS011;50299;49.524;8.536;2023-03-08T05:41:01;15.70;;;10.63;;
64052;SDS011;50299;49.524;8.536;2023-03-08T05:43:29;18.60;;;11.40;;
64052;SDS011;50299;49.524;8.536;2023-03-08T05:45:57;15.82;;;10.55;;
64052;SDS011;50299;49.524;8.536;2023-03-08T05:48:25;20.13;;;11.52;;
64052;SDS011;50299;49.524;8.536;2023-03-08T05:50:52;20.25;;;11.40;;
64052;SDS011;50299;49.524;8.536;2023-03-08T05:53:19;18.83;;;10.02;;
64052;SDS011;50299;49.524;8.536;2023-03-08T05:55:45;17.70;;;12.43;;
64052;SDS011;50299;49.524;8.536;2023-03-08T05:58:12;16.63;;;11.23;;
64052;SDS011;50299;49.524;8.536;2023-03-08T06:00:39;16.15;;;10.88;;
64052;SDS011;50299;49.524;8.536;2023-03-08T06:03:05;16.67;;;10.70;;
64052;SDS011;50299;49.524;8.536;2023-03-08T06:05:32;15.88;;;10.20;;
64052;SDS011;50299;49.524;8.536;2023-03-08T06:07:59;18.45;;;10.50;;
64052;SDS011;50299;49.524;8.536;2023-03-08T06:10:26;17.00;;;10.65;;
64052;SDS011;50299;49.524;8.536;2023-03-08T06:12:52;16.30;;;10.82;;
64052;SDS011;50299;49.524;8.536;2023-03-08T06:15:19;19.85;;;10.98;;
64052;SDS011;50299;49.524;8.536;2023-03-08T06:17:45;19.70;;;11.93;;
64052;SDS011;50299;49.524;8.536;2023-03-08T06:20:12;18.23;;;10.55;;
64052;SDS011;50299;49.524;8.536;2023-03-08T06:22:44;18.23;;;11.88;;
64052;SDS011;50299;49.524;8.536;2023-03-08T06:25:10;15.88;;;11.35;;
64052;SDS011;50299;49.524;8.536;2023-03-08T06:27:37;18.20;;;9.88;;
64052;SDS011;50299;49.524;8.536;2023-03-08T06:30:04;17.58;;;10.50;;
64052;SDS011;50299;49.524;8.536;2023-03-08T06:32:31;16.52;;;11.15;;
64052;SDS011;50299;49.524;8.536;2023-03-08T06:35:06;21.65;;;11.75;;
64052;SDS011;50299;49.524;8.536;2023-03-08T06:37:33;17.80;;;11.75;;
64052;SDS011;50299;49.524;8.536;2023-03-08T06:40:00;22.75;;;12.05;;
64052;SDS011;50299;49.524;8.536;2023-03-08T06:42:31;16.10;;;11.00;;
64052;SDS011;50299;49.524;8.536;2023-03-08T06:45:08;16.17;;;11.15;;
64052;SDS011;50299;49.524;8.536;2023-03-08T06:47:36;20.10;;;11.25;;
64052;SDS011;50299;49.524;8.536;2023-03-08T06:50:05;21.67;;;12.65;;
64052;SDS011;50299;49.524;8.536;2023-03-08T06:52:32;20.20;;;12.10;;
64052;SDS011;50299;49.524;8.536;2023-03-08T06:55:03;16.00;;;10.85;;
64052;SDS011;50299;49.524;8.536;2023-03-08T06:57:30;19.00;;;12.75;;
64052;SDS011;50299;49.524;8.536;2023-03-08T07:00:02;17.15;;;10.80;;
64052;SDS011;50299;49.524;8.536;2023-03-08T07:02:32;17.48;;;11.15;;
64052;SDS011;50299;49.524;8.536;2023-03-08T07:04:59;17.40;;;11.35;;
64052;SDS011;50299;49.524;8.536;2023-03-08T07:07:34;17.88;;;11.32;;
64052;SDS011;50299;49.524;8.536;2023-03-08T07:12:47;19.85;;;13.70;;
64052;SDS011;50299;49.524;8.536;2023-03-08T07:15:20;19.25;;;12.48;;
64052;SDS011;50299;49.524;8.536;2023-03-08T07:17:49;19.63;;;12.27;;
64052;SDS011;50299;49.524;8.536;2023-03-08T07:20:20;19.13;;;13.55;;
64052;SDS011;50299;49.524;8.536;2023-03-08T07:22:48;17.42;;;12.27;;
64052;SDS011;50299;49.524;8.536;2023-03-08T07:25:16;22.40;;;13.02;;
64052;SDS011;50299;49.524;8.536;2023-03-08T07:27:44;23.70;;;13.02;;
64052;SDS011;50299;49.524;8.536;2023-03-08T07:30:11;20.10;;;11.93;;
64052;SDS011;50299;49.524;8.536;2023-03-08T07:32:41;16.90;;;10.68;;
64052;SDS011;50299;49.524;8.536;2023-03-08T07:35:10;28.15;;;14.23;;
64052;SDS011;50299;49.524;8.536;2023-03-08T07:37:43;19.40;;;10.80;;
64052;SDS011;50299;49.524;8.536;2023-03-08T07:40:19;20.58;;;11.48;;
64052;SDS011;50299;49.524;8.536;2023-03-08T07:42:48;16.45;;;11.63;;
64052;SDS011;50299;49.524;8.536;2023-03-08T07:45:19;20.92;;;11.90;;
64052;SDS011;50299;49.524;8.536;2023-03-08T07:47:51;19.30;;;12.80;;
64052;SDS011;50299;49.524;8.536;2023-03-08T07:50:18;22.60;;;12.43;;
64052;SDS011;50299;49.524;8.536;2023-03-08T07:52:48;20.05;;;12.07;;
64052;SDS011;50299;49.524;8.536;2023-03-08T07:55:47;20.98;;;12.35;;
64052;SDS011;50299;49.524;8.536;2023-03-08T07:58:18;22.42;;;13.07;;
64052;SDS011;50299;49.524;8.536;2023-03-08T08:00:54;18.45;;;11.45;;
64052;SDS011;50299;49.524;8.536;2023-03-08T08:03:21;20.45;;;12.15;;
64052;SDS011;50299;49.524;8.536;2023-03-08T08:05:48;25.00;;;14.48;;
64052;SDS011;50299;49.524;8.536;2023-03-08T08:08:16;24.67;;;16.40;;
64052;SDS011;50299;49.524;8.536;2023-03-08T08:10:43;19.40;;;13.23;;
64052;SDS011;50299;49.524;8.536;2023-03-08T08:13:10;21.05;;;12.00;;
64052;SDS011;50299;49.524;8.536;2023-03-08T08:15:43;24.52;;;13.38;;
64052;SDS011;50299;49.524;8.536;2023-03-08T08:20:36;18.77;;;12.93;;
64052;SDS011;50299;49.524;8.536;2023-03-08T08:23:06;22.80;;;13.95;;
64052;SDS011;50299;49.524;8.536;2023-03-08T08:25:35;24.17;;;16.83;;
64052;SDS011;50299;49.524;8.536;2023-03-08T08:28:08;24.40;;;16.42;;
64052;SDS011;50299;49.524;8.536;2023-03-08T08:30:37;24.85;;;15.18;;
64052;SDS011;50299;49.524;8.536;2023-03-08T08:33:07;23.55;;;16.25;;
64052;SDS011;50299;49.524;8.536;2023-03-08T08:35:33;24.83;;;16.45;;
64052;SDS011;50299;49.524;8.536;2023-03-08T08:38:09;21.70;;;14.25;;
64052;SDS011;50299;49.524;8.536;2023-03-08T08:40:37;30.58;;;17.70;;
64052;SDS011;50299;49.524;8.536;2023-03-08T08:43:07;28.85;;;18.75;;
64052;SDS011;50299;49.524;8.536;2023-03-08T08:45:40;27.65;;;19.52;;
64052;SDS011;50299;49.524;8.536;2023-03-08T08:51:16;25.27;;;15.80;;
64052;SDS011;50299;49.524;8.536;2023-03-08T08:53:44;30.75;;;16.55;;
64052;SDS011;50299;49.524;8.536;2023-03-08T08:56:11;20.50;;;14.90;;
64052;SDS011;50299;49.524;8.536;2023-03-08T08:58:51;26.92;;;16.35;;
64052;SDS011;50299;49.524;8.536;2023-03-08T09:01:23;23.58;;;16.48;;
64052;SDS011;50299;49.524;8.536;2023-03-08T09:03:52;27.63;;;16.95;;
64052;SDS011;50299;49.524;8.536;2023-03-08T09:06:22;22.65;;;15.27;;
64052;SDS011;50299;49.524;8.536;2023-03-08T09:09:03;24.65;;;15.63;;
64052;SDS011;50299;49.524;8.536;2023-03-08T09:11:31;25.35;;;17.42;;
64052;SDS011;50299;49.524;8.536;2023-03-08T09:14:07;21.45;;;14.85;;
64052;SDS011;50299;49.524;8.536;2023-03-08T09:16:44;21.70;;;14.10;;
64052;SDS011;50299;49.524;8.536;2023-03-08T09:19:21;22.45;;;15.25;;
64052;SDS011;50299;49.524;8.536;2023-03-08T09:21:50;20.48;;;13.82;;
64052;SDS011;50299;49.524;8.536;2023-03-08T09:24:16;20.15;;;13.27;;
64052;SDS011;50299;49.524;8.536;2023-03-08T09:26:43;21.50;;;13.30;;
64052;SDS011;50299;49.524;8.536;2023-03-08T09:29:18;18.85;;;13.02;;
64052;SDS011;50299;49.524;8.536;2023-03-08T09:31:50;20.85;;;14.32;;
64052;SDS011;50299;49.524;8.536;2023-03-08T09:34:31;21.58;;;14.18;;
64052;SDS011;50299;49.524;8.536;2023-03-08T09:37:03;17.23;;;11.77;;
64052;SDS011;50299;49.524;8.536;2023-03-08T09:39:38;17.30;;;11.90;;
64052;SDS011;50299;49.524;8.536;2023-03-08T09:42:06;18.33;;;11.68;;
64052;SDS011;50299;49.524;8.536;2023-03-08T09:45:03;19.27;;;13.02;;
64052;SDS011;50299;49.524;8.536;2023-03-08T09:50:27;15.95;;;10.80;;
64052;SDS011;50299;49.524;8.536;2023-03-08T09:54:04;13.93;;;9.25;;
64052;SDS011;50299;49.524;8.536;2023-03-08T09:56:53;14.05;;;9.93;;
64052;SDS011;50299;49.524;8.536;2023-03-08T09:59:30;12.90;;;10.30;;
64052;SDS011;50299;49.524;8.536;2023-03-08T10:08:23;14.35;;;9.48;;
64052;SDS011;50299;49.524;8.536;2023-03-08T10:11:02;12.57;;;9.07;;
64052;SDS011;50299;49.524;8.536;2023-03-08T10:13:42;11.52;;;8.45;;
64052;SDS011;50299;49.524;8.536;2023-03-08T10:16:25;13.45;;;9.18;;
64052;SDS011;50299;49.524;8.536;2023-03-08T10:18:59;12.20;;;9.18;;
64052;SDS011;50299;49.524;8.536;2023-03-08T10:21:33;11.32;;;8.07;;
64052;SDS011;50299;49.524;8.536;2023-03-08T10:26:45;10.60;;;7.88;;
64052;SDS011;50299;49.524;8.536;2023-03-08T10:29:12;14.18;;;10.77;;
64052;SDS011;50299;49.524;8.536;2023-03-08T10:31:41;13.45;;;8.88;;
64052;SDS011;50299;49.524;8.536;2023-03-08T10:34:11;11.38;;;7.78;;
64052;SDS011;50299;49.524;8.536;2023-03-08T10:36:48;11.02;;;7.95;;
64052;SDS011;50299;49.524;8.536;2023-03-08T10:39:22;13.68;;;8.30;;
64052;SDS011;50299;49.524;8.536;2023-03-08T10:41:56;13.60;;;8.90;;
64052;SDS011;50299;49.524;8.536;2023-03-08T10:44:33;14.20;;;9.25;;
64052;SDS011;50299;49.524;8.536;2023-03-08T10:49:46;11.02;;;8.75;;
64052;SDS011;50299;49.524;8.536;2023-03-08T10:52:24;13.90;;;10.50;;
64052;SDS011;50299;49.524;8.536;2023-03-08T10:55:08;12.57;;;9.07;;
64052;SDS011;50299;49.524;8.536;2023-03-08T10:57:35;13.75;;;9.68;;
64052;SDS011;50299;49.524;8.536;2023-03-08T11:00:05;14.48;;;8.75;;
64052;SDS011;50299;49.524;8.536;2023-03-08T11:03:09;15.95;;;10.77;;
64052;SDS011;50299;49.524;8.536;2023-03-08T11:08:17;14.18;;;10.30;;
64052;SDS011;50299;49.524;8.536;2023-03-08T11:10:45;13.18;;;11.30;;
64052;SDS011;50299;49.524;8.536;2023-03-08T11:16:15;16.48;;;10.18;;
64052;SDS011;50299;49.524;8.536;2023-03-08T11:28:33;45.45;;;24.63;;
64052;SDS011;50299;49.524;8.536;2023-03-08T11:33:33;13.65;;;10.05;;
64052;SDS011;50299;49.524;8.536;2023-03-08T11:36:15;15.98;;;10.98;;
64052;SDS011;50299;49.524;8.536;2023-03-08T11:38:57;14.73;;;10.50;;
64052;SDS011;50299;49.524;8.536;2023-03-08T11:41:39;15.70;;;10.52;;
64052;SDS011;50299;49.524;8.536;2023-03-08T11:44:14;15.93;;;11.65;;
64052;SDS011;50299;49.524;8.536;2023-03-08T11:46:57;16.13;;;11.18;;
64052;SDS011;50299;49.524;8.536;2023-03-08T11:52:28;17.10;;;12.30;;
64052;SDS011;50299;49.524;8.536;2023-03-08T12:01:01;40.17;;;12.95;;
64052;SDS011;50299;49.524;8.536;2023-03-08T12:03:39;207.75;;;21.23;;
64052;SDS011;50299;49.524;8.536;2023-03-08T12:06:18;265.13;;;33.72;;
64052;SDS011;50299;49.524;8.536;2023-03-08T12:14:47;122.30;;;17.05;;
64052;SDS011;50299;49.524;8.536;2023-03-08T12:17:35;22.25;;;12.13;;
64052;SDS011;50299;49.524;8.536;2023-03-08T12:20:14;52.75;;;14.38;;
64052;SDS011;50299;49.524;8.536;2023-03-08T12:22:53;36.72;;;13.00;;
64052;SDS011;50299;49.524;8.536;2023-03-08T12:25:30;20.40;;;11.75;;
64052;SDS011;50299;49.524;8.536;2023-03-08T12:33:54;50.08;;;13.10;;
64052;SDS011;50299;49.524;8.536;2023-03-08T12:36:43;25.80;;;11.90;;
64052;SDS011;50299;49.524;8.536;2023-03-08T12:45:43;14.07;;;10.77;;
64052;SDS011;50299;49.524;8.536;2023-03-08T12:58:37;96.43;;;15.45;;
64052;SDS011;50299;49.524;8.536;2023-03-08T13:01:37;193.32;;;21.10;;
64052;SDS011;50299;49.524;8.536;2023-03-08T13:09:49;259.02;;;21.92;;
64052;SDS011;50299;49.524;8.536;2023-03-08T13:12:41;165.98;;;19.48;;
64052;SDS011;50299;49.524;8.536;2023-03-08T13:15:24;27.02;;;11.68;;
64052;SDS011;50299;49.524;8.536;2023-03-08T13:17:58;36.60;;;11.70;;
64052;SDS011;50299;49.524;8.536;2023-03-08T13:23:09;17.30;;;10.57;;
64052;SDS011;50299;49.524;8.536;2023-03-08T13:25:59;14.52;;;9.63;;
64052;SDS011;50299;49.524;8.536;2023-03-08T13:28:42;11.52;;;9.43;;
64052;SDS011;50299;49.524;8.536;2023-03-08T13:31:21;13.50;;;9.05;;
64052;SDS011;50299;49.524;8.536;2023-03-08T13:33:52;20.70;;;9.65;;
64052;SDS011;50299;49.524;8.536;2023-03-08T13:36:24;20.90;;;8.65;;
64052;SDS011;50299;49.524;8.536;2023-03-08T13:41:38;16.20;;;8.57;;
64052;SDS011;50299;49.524;8.536;2023-03-08T13:44:24;23.35;;;8.80;;
64052;SDS011;50299;49.524;8.536;2023-03-08T13:46:59;17.27;;;9.40;;
64052;SDS011;50299;49.524;8.536;2023-03-08T13:49:44;11.30;;;7.57;;
64052;SDS011;50299;49.524;8.536;2023-03-08T13:52:31;9.68;;;7.80;;
64052;SDS011;50299;49.524;8.536;2023-03-08T13:55:04;9.45;;;7.35;;
64052;SDS011;50299;49.524;8.536;2023-03-08T13:57:52;8.02;;;7.20;;
64052;SDS011;50299;49.524;8.536;2023-03-08T14:00:56;8.65;;;6.47;;
64052;SDS011;50299;49.524;8.536;2023-03-08T14:03:35;9.63;;;6.25;;
64052;SDS011;50299;49.524;8.536;2023-03-08T14:06:30;7.85;;;5.80;;
64052;SDS011;50299;49.524;8.536;2023-03-08T14:09:34;7.78;;;5.38;;
64052;SDS011;50299;49.524;8.536;2023-03-08T14:12:02;6.47;;;4.80;;
64052;SDS011;50299;49.524;8.536;2023-03-08T14:14:37;5.10;;;4.60;;
64052;SDS011;50299;49.524;8.536;2023-03-08T14:17:11;4.68;;;4.15;;
64052;SDS011;50299;49.524;8.536;2023-03-08T14:19:51;6.88;;;3.60;;
64052;SDS011;50299;49.524;8.536;2023-03-08T14:25:15;3.17;;;2.88;;
64052;SDS011;50299;49.524;8.536;2023-03-08T14:27:51;4.53;;;3.53;;
64052;SDS011;50299;49.524;8.536;2023-03-08T14:30:19;4.72;;;3.78;;
64052;SDS011;50299;49.524;8.536;2023-03-08T14:32:57;3.65;;;2.97;;
64052;SDS011;50299;49.524;8.536;2023-03-08T14:35:53;4.70;;;2.88;;
64052;SDS011;50299;49.524;8.536;2023-03-08T14:38:25;3.33;;;3.03;;
64052;SDS011;50299;49.524;8.536;2023-03-08T14:40:54;2.95;;;2.60;;
64052;SDS011;50299;49.524;8.536;2023-03-08T14:43:22;3.03;;;2.38;;
64052;SDS011;50299;49.524;8.536;2023-03-08T14:50:59;2.80;;;2.25;;
64052;SDS011;50299;49.524;8.536;2023-03-08T14:56:04;2.40;;;2.08;;
64052;SDS011;50299;49.524;8.536;2023-03-08T14:58:47;2.20;;;2.00;;
64052;SDS011;50299;49.524;8.536;2023-03-08T15:01:27;2.08;;;1.92;;
64052;SDS011;50299;49.524;8.536;2023-03-08T15:03:57;2.30;;;2.10;;
64052;SDS011;50299;49.524;8.536;2023-03-08T15:06:31;2.50;;;1.90;;
64052;SDS011;50299;49.524;8.536;2023-03-08T15:09:05;1.70;;;1.60;;
64052;SDS011;50299;49.524;8.536;2023-03-08T15:11:33;3.30;;;1.70;;
64052;SDS011;50299;49.524;8.536;2023-03-08T15:14:03;2.85;;;2.05;;
64052;SDS011;50299;49.524;8.536;2023-03-08T15:16:29;1.80;;;1.70;;
64052;SDS011;50299;49.524;8.536;2023-03-08T15:18:56;1.85;;;1.50;;
64052;SDS011;50299;49.524;8.536;2023-03-08T15:21:24;14.70;;;2.65;;
64052;SDS011;50299;49.524;8.536;2023-03-08T15:23:55;1.67;;;1.55;;
64052;SDS011;50299;49.524;8.536;2023-03-08T15:26:24;1.58;;;1.42;;
64052;SDS011;50299;49.524;8.536;2023-03-08T15:28:52;2.28;;;2.10;;
64052;SDS011;50299;49.524;8.536;2023-03-08T15:31:22;2.42;;;2.10;;
64052;SDS011;50299;49.524;8.536;2023-03-08T15:33:49;1.95;;;1.85;;
64052;SDS011;50299;49.524;8.536;2023-03-08T15:36:16;1.70;;;1.60;;
64052;SDS011;50299;49.524;8.536;2023-03-08T15:38:44;3.13;;;1.80;;
64052;SDS011;50299;49.524;8.536;2023-03-08T15:41:11;2.13;;;1.92;;
64052;SDS011;50299;49.524;8.536;2023-03-08T15:43:39;2.13;;;1.73;;
64052;SDS011;50299;49.524;8.536;2023-03-08T15:46:08;2.45;;;1.92;;
64052;SDS011;50299;49.524;8.536;2023-03-08T15:48:36;1.92;;;1.83;;
64052;SDS011;50299;49.524;8.536;2023-03-08T15:51:03;2.30;;;2.20;;
64052;SDS011;50299;49.524;8.536;2023-03-08T15:53:30;1.65;;;1.55;;
64052;SDS011;50299;49.524;8.536;2023-03-08T15:56:01;2.95;;;2.47;;
64052;SDS011;50299;49.524;8.536;2023-03-08T15:58:28;1.90;;;1.63;;
64052;SDS011;50299;49.524;8.536;2023-03-08T16:00:57;2.20;;;2.03;;
64052;SDS011;50299;49.524;8.536;2023-03-08T16:03:27;2.70;;;2.10;;
64052;SDS011;50299;49.524;8.536;2023-03-08T16:05:56;2.35;;;2.15;;
64052;SDS011;50299;49.524;8.536;2023-03-08T16:08:28;3.53;;;2.40;;
64052;SDS011;50299;49.524;8.536;2023-03-08T16:10:55;2.80;;;2.58;;
64052;SDS011;50299;49.524;8.536;2023-03-08T16:13:25;4.15;;;3.30;;
64052;SDS011;50299;49.524;8.536;2023-03-08T16:15:51;3.33;;;3.03;;
64052;SDS011;50299;49.524;8.536;2023-03-08T16:18:18;2.85;;;2.55;;
64052;SDS011;50299;49.524;8.536;2023-03-08T16:20:44;3.47;;;2.13;;
64052;SDS011;50299;49.524;8.536;2023-03-08T16:23:11;2.50;;;2.30;;
64052;SDS011;50299;49.524;8.536;2023-03-08T16:25:37;2.35;;;1.92;;
64052;SDS011;50299;49.524;8.536;2023-03-08T16:28:08;2.15;;;2.00;;
64052;SDS011;50299;49.524;8.536;2023-03-08T16:30:35;2.08;;;1.88;;
64052;SDS011;50299;49.524;8.536;2023-03-08T16:33:04;2.45;;;1.52;;
64052;SDS011;50299;49.524;8.536;2023-03-08T16:35:30;3.33;;;2.50;;
64052;SDS011;50299;49.524;8.536;2023-03-08T16:37:59;3.15;;;2.40;;
64052;SDS011;50299;49.524;8.536;2023-03-08T16:40:25;2.22;;;2.00;;
64052;SDS011;50299;49.524;8.536;2023-03-08T16:42:56;2.25;;;2.10;;
64052;SDS011;50299;49.524;8.536;2023-03-08T16:45:22;1.88;;;1.75;;